createdAt,value
2017-08-16T00:02:06.571Z,17.27
2017-08-16T00:04:34.075Z,17.27
2017-08-16T00:07:01.609Z,18.58
2017-08-16T00:15:27.312Z,17.27
2017-08-16T00:17:54.842Z,18.95
2017-08-16T00:20:22.344Z,20.20
2017-08-16T00:22:49.881Z,20.62
2017-08-16T00:25:17.390Z,19.45
2017-08-16T00:27:44.896Z,20.17
2017-08-16T00:30:12.412Z,19.27
2017-08-16T00:32:39.932Z,17.05
2017-08-16T00:35:07.434Z,16.83
2017-08-16T00:37:34.979Z,17.77
2017-08-16T00:40:02.501Z,18.23
2017-08-16T00:42:30.037Z,17.00
2017-08-16T00:44:57.539Z,18.87
2017-08-16T00:47:25.066Z,17.20
2017-08-16T00:49:52.577Z,19.20
2017-08-16T00:52:20.892Z,17.30
2017-08-16T00:54:48.406Z,17.37
2017-08-16T00:57:15.914Z,18.05
2017-08-16T00:59:43.430Z,16.77
2017-08-16T01:02:11.702Z,18.10
2017-08-16T01:04:39.203Z,16.98
2017-08-16T01:07:06.703Z,16.60
2017-08-16T01:09:34.218Z,17.62
2017-08-16T01:12:01.740Z,16.10
2017-08-16T01:14:30.033Z,15.20
2017-08-16T01:16:57.555Z,18.27
2017-08-16T01:19:25.085Z,14.80
2017-08-16T01:21:52.604Z,15.35
2017-08-16T01:24:20.128Z,16.15
2017-08-16T01:26:47.631Z,14.18
2017-08-16T01:29:15.127Z,15.05
2017-08-16T01:31:42.627Z,14.43
2017-08-16T01:34:10.115Z,15.55
2017-08-16T01:36:37.645Z,14.93
2017-08-16T01:39:05.139Z,16.65
2017-08-16T01:41:32.659Z,16.62
2017-08-16T01:44:00.164Z,15.95
2017-08-16T01:46:27.684Z,16.33
2017-08-16T01:48:55.184Z,16.50
2017-08-16T01:51:22.686Z,17.08
2017-08-16T01:53:50.187Z,19.00
2017-08-16T01:56:17.690Z,19.23
2017-08-16T01:58:45.214Z,16.95
2017-08-16T02:01:12.736Z,18.52
2017-08-16T02:03:40.227Z,21.00
2017-08-16T02:06:07.751Z,20.35
2017-08-16T02:08:35.267Z,20.50
2017-08-16T02:11:02.794Z,18.33
2017-08-16T02:13:30.330Z,19.85
2017-08-16T02:15:57.839Z,21.30
2017-08-16T02:18:25.361Z,19.35
2017-08-16T02:20:52.863Z,21.40
2017-08-16T02:23:20.372Z,21.15
2017-08-16T02:25:47.858Z,21.12
2017-08-16T02:28:15.365Z,21.42
2017-08-16T02:30:42.866Z,24.12
2017-08-16T02:33:10.382Z,21.40
2017-08-16T02:35:38.651Z,22.70
2017-08-16T02:38:06.944Z,25.60
2017-08-16T02:40:34.445Z,26.02
2017-08-16T02:43:01.974Z,24.70
2017-08-16T02:45:29.473Z,28.10
2017-08-16T02:47:56.977Z,30.88
2017-08-16T02:50:24.487Z,27.52
2017-08-16T02:52:51.986Z,29.30
2017-08-16T02:55:19.491Z,30.92
2017-08-16T02:57:46.981Z,34.78
2017-08-16T03:00:14.492Z,35.33
2017-08-16T03:02:41.987Z,37.00
2017-08-16T03:05:09.597Z,33.72
2017-08-16T03:07:37.084Z,33.20
2017-08-16T03:10:04.596Z,34.03
2017-08-16T03:12:32.108Z,32.63
2017-08-16T03:14:59.625Z,34.00
2017-08-16T03:17:27.141Z,32.88
2017-08-16T03:19:54.703Z,32.17
2017-08-16T03:22:22.228Z,31.58
2017-08-16T03:24:49.726Z,32.10
2017-08-16T03:27:17.250Z,37.15
2017-08-16T03:29:44.739Z,35.85
2017-08-16T03:32:13.021Z,34.20
2017-08-16T03:34:40.516Z,38.05
2017-08-16T03:37:08.027Z,38.25
2017-08-16T03:39:35.560Z,39.38
2017-08-16T03:42:03.076Z,41.50
2017-08-16T03:44:30.580Z,40.83
2017-08-16T03:46:58.117Z,47.10
2017-08-16T03:49:25.639Z,47.50
2017-08-16T03:51:53.164Z,46.92
2017-08-16T03:54:20.668Z,47.05
2017-08-16T03:56:48.164Z,50.88
2017-08-16T03:59:15.675Z,48.47
2017-08-16T04:01:43.950Z,54.67
2017-08-16T04:04:11.472Z,52.70
2017-08-16T04:06:38.980Z,55.42
2017-08-16T04:09:06.490Z,55.22
2017-08-16T04:11:33.991Z,57.42
2017-08-16T04:14:01.508Z,55.83
2017-08-16T04:16:29.036Z,57.90
2017-08-16T04:18:56.554Z,60.20
2017-08-16T04:21:24.051Z,58.58
2017-08-16T04:23:51.563Z,59.83
2017-08-16T04:26:19.832Z,65.68
2017-08-16T04:28:47.355Z,56.90
2017-08-16T04:31:14.857Z,66.03
2017-08-16T04:33:42.354Z,63.50
2017-08-16T04:36:09.890Z,62.92
2017-08-16T04:38:37.404Z,62.33
2017-08-16T04:41:04.914Z,61.55
2017-08-16T04:43:32.452Z,60.28
2017-08-16T04:45:59.970Z,61.70
2017-08-16T04:48:27.513Z,66.28
2017-08-16T04:50:55.076Z,60.80
2017-08-16T04:53:22.577Z,71.78
2017-08-16T04:55:50.106Z,64.57
2017-08-16T04:58:17.591Z,66.78
2017-08-16T05:00:45.137Z,68.40
2017-08-16T05:03:12.647Z,63.70
2017-08-16T05:05:40.363Z,74.47
2017-08-16T05:08:07.877Z,67.95
2017-08-16T05:10:35.366Z,63.63
2017-08-16T05:13:02.886Z,62.65
2017-08-16T05:15:32.326Z,60.85
2017-08-16T05:17:59.827Z,61.67
2017-08-16T05:20:27.320Z,64.07
2017-08-16T05:22:54.827Z,65.47
2017-08-16T05:25:22.370Z,61.17
2017-08-16T05:27:49.880Z,59.55
2017-08-16T05:30:17.386Z,59.53
2017-08-16T05:32:44.897Z,57.20
2017-08-16T05:35:12.403Z,56.65
2017-08-16T05:37:39.939Z,60.17
2017-08-16T05:40:07.439Z,56.63
2017-08-16T05:42:34.933Z,58.42
2017-08-16T05:45:02.456Z,55.05
2017-08-16T05:47:29.998Z,50.80
2017-08-16T05:49:58.323Z,53.45
2017-08-16T05:52:25.813Z,54.47
2017-08-16T05:54:53.321Z,55.03
2017-08-16T05:57:20.810Z,49.10
2017-08-16T05:59:48.359Z,47.27
2017-08-16T06:02:16.476Z,46.60
2017-08-16T06:04:44.745Z,50.22
2017-08-16T06:07:12.271Z,43.25
2017-08-16T06:09:39.862Z,41.63
2017-08-16T06:12:07.407Z,43.87
2017-08-16T06:14:34.960Z,46.10
2017-08-16T06:17:02.461Z,39.07
2017-08-16T06:19:29.998Z,42.58
2017-08-16T06:21:57.507Z,36.65
2017-08-16T06:24:25.004Z,41.13
2017-08-16T06:26:52.525Z,39.72
2017-08-16T06:29:20.031Z,42.03
2017-08-16T06:31:47.540Z,36.58
2017-08-16T06:34:15.039Z,36.07
2017-08-16T06:36:42.555Z,37.15
2017-08-16T06:39:10.057Z,38.10
2017-08-16T06:41:37.587Z,36.35
2017-08-16T06:44:05.083Z,39.50
2017-08-16T06:46:32.606Z,34.40
2017-08-16T06:49:00.091Z,30.33
2017-08-16T06:51:27.601Z,31.97
2017-08-16T06:53:55.156Z,30.77
2017-08-16T06:56:22.685Z,30.53
2017-08-16T06:58:50.961Z,27.60
2017-08-16T07:01:18.461Z,28.10
2017-08-16T07:03:45.963Z,25.73
2017-08-16T07:06:13.448Z,26.00
2017-08-16T07:08:40.965Z,24.67
2017-08-16T07:11:08.456Z,25.27
2017-08-16T07:13:35.962Z,24.87
2017-08-16T07:16:03.459Z,25.30
2017-08-16T07:18:30.946Z,22.77
2017-08-16T07:20:58.460Z,22.97
2017-08-16T07:23:26.735Z,24.20
2017-08-16T07:25:54.256Z,20.47
2017-08-16T07:28:21.759Z,20.63
2017-08-16T07:30:49.283Z,23.33
2017-08-16T07:33:16.767Z,21.27
2017-08-16T07:35:44.271Z,20.57
2017-08-16T07:38:11.789Z,20.17
2017-08-16T07:40:39.303Z,15.20
2017-08-16T07:43:06.788Z,15.50
2017-08-16T07:45:34.326Z,15.10
2017-08-16T07:48:01.824Z,14.10
2017-08-16T07:50:29.319Z,12.77
2017-08-16T07:52:56.827Z,11.73
2017-08-16T07:55:24.319Z,12.23
2017-08-16T07:57:52.604Z,11.23
2017-08-16T08:00:20.107Z,9.30
2017-08-16T08:02:47.607Z,9.43
2017-08-16T08:05:15.093Z,10.73
2017-08-16T08:07:42.631Z,8.83
2017-08-16T08:10:10.120Z,8.70
2017-08-16T08:12:37.615Z,8.60
2017-08-16T08:15:05.099Z,9.60
2017-08-16T08:17:33.367Z,8.60
2017-08-16T08:20:00.855Z,8.73
2017-08-16T08:22:28.435Z,8.37
2017-08-16T08:24:55.924Z,8.60
2017-08-16T08:27:23.442Z,8.93
2017-08-16T08:29:50.935Z,9.30
2017-08-16T08:32:18.410Z,8.47
2017-08-16T08:34:46.681Z,9.20
2017-08-16T08:37:14.168Z,8.00
2017-08-16T08:39:41.655Z,8.27
2017-08-16T08:42:09.147Z,8.80
2017-08-16T08:44:36.654Z,7.00
2017-08-16T08:47:04.135Z,6.77
2017-08-16T08:49:31.655Z,6.93
2017-08-16T08:51:59.155Z,7.97
2017-08-16T08:54:26.670Z,6.90
2017-08-16T08:56:54.194Z,7.40
2017-08-16T08:59:21.939Z,6.80
2017-08-16T09:01:49.430Z,6.90
2017-08-16T09:04:16.915Z,6.50
2017-08-16T09:06:44.422Z,6.60
2017-08-16T09:09:12.165Z,7.37
2017-08-16T09:11:39.707Z,7.17
2017-08-16T09:14:07.215Z,6.80
2017-08-16T09:16:34.718Z,6.03
2017-08-16T09:19:02.203Z,5.30
2017-08-16T09:21:29.728Z,5.13
2017-08-16T09:23:58.124Z,4.17
2017-08-16T09:26:25.643Z,5.43
2017-08-16T09:28:53.888Z,6.90
2017-08-16T09:31:21.383Z,5.50
2017-08-16T09:33:48.876Z,5.80
2017-08-16T09:36:16.384Z,4.87
2017-08-16T09:38:44.651Z,6.50
2017-08-16T09:41:12.128Z,5.70
2017-08-16T09:43:39.636Z,5.30
2017-08-16T09:46:07.123Z,5.03
2017-08-16T09:48:34.622Z,4.87
2017-08-16T09:51:02.110Z,3.73
2017-08-16T09:53:29.610Z,4.20
2017-08-16T09:55:57.108Z,5.03
2017-08-16T09:58:24.601Z,4.53
2017-08-16T10:00:52.084Z,4.70
2017-08-16T10:03:20.341Z,3.40
2017-08-16T10:05:47.868Z,4.50
2017-08-16T10:08:15.372Z,4.60
2017-08-16T10:10:43.651Z,4.33
2017-08-16T10:13:11.900Z,5.00
2017-08-16T10:15:39.392Z,4.30
2017-08-16T10:18:06.891Z,3.60
2017-08-16T10:20:34.382Z,3.10
2017-08-16T10:23:01.863Z,2.10
2017-08-16T10:25:30.123Z,1.80
2017-08-16T10:27:58.383Z,2.63
2017-08-16T10:30:25.882Z,2.53
2017-08-16T10:32:53.382Z,2.33
2017-08-16T10:35:20.891Z,2.30
2017-08-16T10:37:48.381Z,3.33
2017-08-16T10:40:15.879Z,3.30
2017-08-16T10:42:43.360Z,2.77
2017-08-16T10:45:10.836Z,2.87
2017-08-16T10:47:38.340Z,2.87
2017-08-16T10:50:05.831Z,2.60
2017-08-16T10:52:33.336Z,2.40
2017-08-16T10:55:00.822Z,2.40
2017-08-16T10:57:28.335Z,2.67
2017-08-16T10:59:55.812Z,2.27
2017-08-16T11:02:23.321Z,2.80
2017-08-16T11:04:50.796Z,3.00
2017-08-16T11:07:18.400Z,3.60
2017-08-16T11:09:45.903Z,2.90
2017-08-16T11:12:13.387Z,3.30
2017-08-16T11:14:40.902Z,2.87
2017-08-16T11:17:08.437Z,2.40
2017-08-16T11:19:35.948Z,2.80
2017-08-16T11:22:03.446Z,2.90
2017-08-16T11:24:30.943Z,2.43
2017-08-16T11:26:58.477Z,2.27
2017-08-16T11:29:26.010Z,2.37
2017-08-16T11:31:53.495Z,2.20
2017-08-16T11:34:21.004Z,3.73
2017-08-16T11:36:48.498Z,2.50
2017-08-16T11:39:15.999Z,2.23
2017-08-16T11:41:43.480Z,1.97
2017-08-16T11:44:10.986Z,1.90
2017-08-16T11:46:38.475Z,1.50
2017-08-16T11:49:05.958Z,1.77
2017-08-16T11:51:33.463Z,1.83
2017-08-16T11:54:00.951Z,1.50
2017-08-16T11:56:29.259Z,1.50
2017-08-16T11:58:56.743Z,1.70
2017-08-16T12:01:24.452Z,1.80
2017-08-16T12:03:51.938Z,2.20
2017-08-16T12:06:19.432Z,2.33
2017-08-16T12:08:46.932Z,2.00
2017-08-16T12:11:14.433Z,2.40
2017-08-16T12:13:41.903Z,1.80
2017-08-16T12:16:09.401Z,1.87
2017-08-16T12:18:37.090Z,1.20
2017-08-16T12:21:04.577Z,1.40
2017-08-16T12:23:32.056Z,2.00
2017-08-16T12:25:59.557Z,1.70
2017-08-16T12:28:27.035Z,2.03
2017-08-16T12:30:54.571Z,1.87
2017-08-16T12:33:22.042Z,1.70
2017-08-16T12:35:49.543Z,1.60
2017-08-16T12:38:17.800Z,1.70
2017-08-16T12:40:45.283Z,1.67
2017-08-16T12:43:12.838Z,1.70
2017-08-16T12:45:40.346Z,1.70
2017-08-16T12:48:07.872Z,1.50
2017-08-16T12:50:35.352Z,1.77
2017-08-16T12:53:02.830Z,2.10
2017-08-16T12:55:30.354Z,1.77
2017-08-16T12:57:57.839Z,1.70
2017-08-16T13:00:25.333Z,1.83
2017-08-16T13:02:53.616Z,1.37
2017-08-16T13:05:21.872Z,1.67
2017-08-16T13:07:49.372Z,1.40
2017-08-16T13:10:16.859Z,1.90
2017-08-16T13:12:44.374Z,1.80
2017-08-16T13:15:11.944Z,1.53
2017-08-16T13:17:39.449Z,1.53
2017-08-16T13:20:06.940Z,1.63
2017-08-16T13:22:34.420Z,1.77
2017-08-16T13:25:01.911Z,1.53
2017-08-16T13:27:29.387Z,1.50
2017-08-16T13:29:56.867Z,1.40
2017-08-16T13:32:24.361Z,1.30
2017-08-16T13:34:51.846Z,1.30
2017-08-16T13:37:19.319Z,1.40
2017-08-16T13:39:46.806Z,1.40
2017-08-16T13:42:15.023Z,1.47
2017-08-16T13:44:42.528Z,1.50
2017-08-16T13:47:10.770Z,1.40
2017-08-16T13:49:38.275Z,1.60
2017-08-16T13:52:05.762Z,1.70
2017-08-16T13:54:33.243Z,1.80
2017-08-16T13:57:00.750Z,1.40
2017-08-16T13:59:28.244Z,1.00
2017-08-16T14:01:55.755Z,1.40
2017-08-16T14:04:23.233Z,1.73
2017-08-16T14:06:50.728Z,1.30
2017-08-16T14:09:18.205Z,1.30
2017-08-16T14:11:45.755Z,1.40
2017-08-16T14:14:13.261Z,1.30
2017-08-16T14:16:40.760Z,1.27
2017-08-16T14:19:08.283Z,1.70
2017-08-16T14:21:35.771Z,1.63
2017-08-16T14:24:03.269Z,1.20
2017-08-16T14:26:30.748Z,1.33
2017-08-16T14:28:58.240Z,1.77
2017-08-16T14:31:25.719Z,1.40
2017-08-16T14:33:53.206Z,1.43
2017-08-16T14:36:20.698Z,1.17
2017-08-16T14:38:48.187Z,1.77
2017-08-16T14:41:15.672Z,1.20
2017-08-16T14:43:43.176Z,1.70
2017-08-16T14:46:10.672Z,1.37
2017-08-16T14:48:38.146Z,1.83
2017-08-16T14:51:05.636Z,1.40
2017-08-16T14:53:33.112Z,1.53
2017-08-16T14:56:00.610Z,1.40
2017-08-16T14:58:28.109Z,1.40
2017-08-16T15:00:55.596Z,1.53
2017-08-16T15:03:23.104Z,1.40
2017-08-16T15:05:50.615Z,1.57
2017-08-16T15:08:18.092Z,1.60
2017-08-16T15:10:45.598Z,1.60
2017-08-16T15:13:13.082Z,1.40
2017-08-16T15:15:41.288Z,1.30
2017-08-16T15:18:09.458Z,1.60
2017-08-16T15:20:37.711Z,1.17
2017-08-16T15:23:05.226Z,1.30
2017-08-16T15:25:32.712Z,1.20
2017-08-16T15:28:00.208Z,1.10
2017-08-16T15:30:27.685Z,1.10
2017-08-16T15:32:55.187Z,1.03
2017-08-16T15:35:22.659Z,1.90
2017-08-16T15:37:50.155Z,1.20
2017-08-16T15:40:18.401Z,1.60
2017-08-16T15:42:45.914Z,1.30
2017-08-16T15:45:13.404Z,1.60
2017-08-16T15:47:40.934Z,1.17
2017-08-16T15:50:08.405Z,1.50
2017-08-16T15:52:35.875Z,1.40
2017-08-16T15:55:03.375Z,1.40
2017-08-16T15:57:30.856Z,1.30
2017-08-16T15:59:58.375Z,1.30
2017-08-16T16:02:25.891Z,1.40
2017-08-16T16:04:53.383Z,1.43
2017-08-16T16:07:21.649Z,1.53
2017-08-16T16:09:49.159Z,1.33
2017-08-16T16:12:16.634Z,1.43
2017-08-16T16:14:44.135Z,1.37
2017-08-16T16:17:12.388Z,1.63
2017-08-16T16:19:39.902Z,1.27
2017-08-16T16:22:07.384Z,1.27
2017-08-16T16:24:34.873Z,0.90
2017-08-16T16:27:02.381Z,1.33
2017-08-16T16:29:29.854Z,1.30
2017-08-16T16:31:57.354Z,1.47
2017-08-16T16:34:24.841Z,2.00
2017-08-16T16:36:52.331Z,1.70
2017-08-16T16:39:19.826Z,1.40
2017-08-16T16:41:47.334Z,1.60
2017-08-16T16:44:14.827Z,1.30
2017-08-16T16:46:42.323Z,1.50
2017-08-16T16:49:10.591Z,1.60
2017-08-16T16:51:38.855Z,1.70
2017-08-16T16:54:07.146Z,1.57
2017-08-16T16:56:34.643Z,1.83
2017-08-16T16:59:02.151Z,1.67
2017-08-16T17:01:29.640Z,1.33
2017-08-16T17:03:57.156Z,1.30
2017-08-16T17:06:25.422Z,1.40
2017-08-16T17:08:52.931Z,1.57
2017-08-16T17:11:20.414Z,1.50
2017-08-16T17:13:47.927Z,1.57
2017-08-16T17:16:16.181Z,1.50
2017-08-16T17:18:43.678Z,1.30
2017-08-16T17:21:11.186Z,1.17
2017-08-16T17:23:38.682Z,1.57
2017-08-16T17:26:06.259Z,1.50
2017-08-16T17:28:33.772Z,1.33
2017-08-16T17:31:01.298Z,1.63
2017-08-16T17:33:28.777Z,1.90
2017-08-16T17:35:56.292Z,1.40
2017-08-16T17:38:23.801Z,1.63
2017-08-16T17:40:51.304Z,2.17
2017-08-16T17:43:18.801Z,2.00
2017-08-16T17:45:46.338Z,2.57
2017-08-16T17:48:13.840Z,2.17
2017-08-16T17:50:41.348Z,2.40
2017-08-16T17:53:08.851Z,1.90
2017-08-16T17:55:36.333Z,2.30
2017-08-16T17:58:03.855Z,2.10
2017-08-16T18:00:31.388Z,2.30
2017-08-16T18:02:58.895Z,2.00
2017-08-16T18:05:27.147Z,2.63
2017-08-16T18:07:54.635Z,2.27
2017-08-16T18:10:22.891Z,1.90
2017-08-16T18:12:50.391Z,2.10
2017-08-16T18:15:17.890Z,2.03
2017-08-16T18:17:45.393Z,2.17
2017-08-16T18:20:12.974Z,1.60
2017-08-16T18:22:40.494Z,1.53
2017-08-16T18:25:08.771Z,1.80
2017-08-16T18:27:37.031Z,1.80
2017-08-16T18:30:04.535Z,2.07
2017-08-16T18:32:32.024Z,1.90
2017-08-16T18:34:59.500Z,2.03
2017-08-16T18:37:26.979Z,1.80
2017-08-16T18:39:54.475Z,2.70
2017-08-16T18:42:21.971Z,2.03
2017-08-16T18:44:49.470Z,2.60
2017-08-16T18:47:17.092Z,2.27
2017-08-16T18:49:44.563Z,2.87
2017-08-16T18:52:12.044Z,3.17
2017-08-16T18:54:39.546Z,2.80
2017-08-16T18:57:07.043Z,3.10
2017-08-16T18:59:34.528Z,3.27
2017-08-16T19:02:02.068Z,3.20
2017-08-16T19:04:29.581Z,2.72
2017-08-16T19:06:57.340Z,2.93
2017-08-16T19:09:24.884Z,3.30
2017-08-16T19:11:52.383Z,3.30
2017-08-16T19:14:20.666Z,3.77
2017-08-16T19:16:48.168Z,3.40
2017-08-16T19:19:15.695Z,3.08
2017-08-16T19:21:43.195Z,3.35
2017-08-16T19:24:10.688Z,3.70
2017-08-16T19:26:38.959Z,3.40
2017-08-16T19:29:06.487Z,3.97
2017-08-16T19:31:34.000Z,3.40
2017-08-16T19:34:01.500Z,5.07
2017-08-16T19:36:29.020Z,4.05
2017-08-16T19:38:56.585Z,4.50
2017-08-16T19:41:24.104Z,3.87
2017-08-16T19:43:51.599Z,3.85
2017-08-16T19:46:19.118Z,3.70
2017-08-16T19:48:46.615Z,4.10
2017-08-16T19:51:14.095Z,3.65
2017-08-16T19:53:41.598Z,3.87
2017-08-16T19:56:09.095Z,3.05
2017-08-16T19:58:36.634Z,3.97
2017-08-16T20:01:04.893Z,4.47
2017-08-16T20:03:32.383Z,4.37
2017-08-16T20:05:59.877Z,4.12
2017-08-16T20:08:27.452Z,5.05
2017-08-16T20:10:54.939Z,4.43
2017-08-16T20:13:22.446Z,4.30
2017-08-16T20:15:49.939Z,3.55
2017-08-16T20:18:17.424Z,4.60
2017-08-16T20:20:44.989Z,4.35
2017-08-16T20:23:12.487Z,4.55
2017-08-16T20:25:40.079Z,4.57
2017-08-16T20:28:08.005Z,4.70
2017-08-16T20:30:35.533Z,5.15
2017-08-16T20:33:03.034Z,6.20
2017-08-16T20:35:30.540Z,4.70
2017-08-16T20:37:58.050Z,4.80
2017-08-16T20:40:25.591Z,5.05
2017-08-16T20:42:53.096Z,5.00
2017-08-16T20:45:20.599Z,4.87
2017-08-16T20:47:48.086Z,4.53
2017-08-16T20:50:15.579Z,4.95
2017-08-16T20:52:43.873Z,4.87
2017-08-16T20:55:11.376Z,4.78
2017-08-16T20:57:38.876Z,5.62
2017-08-16T21:00:07.192Z,5.70
2017-08-16T21:02:34.702Z,5.37
2017-08-16T21:05:02.952Z,4.80
2017-08-16T21:07:30.444Z,6.18
2017-08-16T21:09:57.949Z,5.55
2017-08-16T21:12:25.449Z,6.55
2017-08-16T21:14:53.723Z,5.70
2017-08-16T21:17:21.281Z,6.47
2017-08-16T21:19:49.547Z,6.28
2017-08-16T21:22:17.063Z,6.28
2017-08-16T21:24:46.471Z,6.65
2017-08-16T21:27:13.977Z,6.18
2017-08-16T21:29:42.234Z,6.60
2017-08-16T21:32:09.728Z,6.25
2017-08-16T21:34:37.261Z,5.70
2017-08-16T21:37:04.760Z,7.00
2017-08-16T21:39:32.239Z,6.22
2017-08-16T21:41:59.737Z,6.18
2017-08-16T21:44:27.220Z,6.35
2017-08-16T21:46:54.703Z,6.50
2017-08-16T21:49:22.202Z,5.82
2017-08-16T21:51:50.481Z,6.82
2017-08-16T21:54:18.925Z,7.25
2017-08-16T21:56:46.419Z,6.78
2017-08-16T21:59:13.910Z,6.30
2017-08-16T22:01:41.413Z,7.95
2017-08-16T22:04:08.945Z,6.32
2017-08-16T22:06:36.455Z,7.57
2017-08-16T22:09:04.739Z,7.35
2017-08-16T22:11:32.231Z,8.20
2017-08-16T22:13:59.733Z,7.80
2017-08-16T22:16:27.227Z,7.75
2017-08-16T22:18:55.510Z,7.35
2017-08-16T22:21:22.987Z,7.40
2017-08-16T22:23:50.468Z,7.57
2017-08-16T22:26:17.958Z,6.90
2017-08-16T22:28:45.452Z,6.25
2017-08-16T22:31:12.934Z,6.60
2017-08-16T22:33:40.410Z,7.00
2017-08-16T22:36:07.901Z,6.95
2017-08-16T22:38:35.391Z,6.32
2017-08-16T22:41:02.875Z,6.35
2017-08-16T22:43:30.376Z,6.50
2017-08-16T22:45:57.888Z,6.20
2017-08-16T22:48:25.396Z,6.90
2017-08-16T22:50:53.655Z,7.20
2017-08-16T22:53:21.902Z,6.65
2017-08-16T22:55:49.399Z,5.65
2017-08-16T22:58:17.653Z,6.45
2017-08-16T23:00:45.139Z,5.65
2017-08-16T23:03:12.638Z,7.65
2017-08-16T23:05:40.153Z,7.75
2017-08-16T23:08:07.629Z,7.62
2017-08-16T23:10:35.136Z,7.15
2017-08-16T23:13:02.622Z,7.53
2017-08-16T23:15:30.102Z,7.90
2017-08-16T23:17:57.576Z,8.20
2017-08-16T23:20:25.064Z,7.32
2017-08-16T23:22:52.727Z,7.30
2017-08-16T23:25:20.226Z,7.30
2017-08-16T23:27:47.719Z,6.72
2017-08-16T23:30:15.253Z,6.70
2017-08-16T23:32:42.751Z,7.50
2017-08-16T23:35:10.236Z,7.57
2017-08-16T23:37:37.739Z,7.90
2017-08-16T23:40:05.271Z,7.28
2017-08-16T23:42:32.757Z,7.28
2017-08-16T23:45:00.256Z,7.87
2017-08-16T23:47:28.583Z,6.87
2017-08-16T23:49:56.103Z,7.50
2017-08-16T23:52:23.648Z,7.60
2017-08-16T23:54:51.917Z,7.45
2017-08-16T23:57:19.429Z,7.30
2017-08-16T23:59:46.929Z,7.40
